Terminal Aerodrome Forecast
Issued by NWS Northern Indiana

Home | Current Version | Previous Version | Graphics & Text | Print | Product List | Glossary On
Versions: 1 2 3 4 5 6 7 8 9 10 11 12 13 14 15 16 17 18 19 20
000
FTUS43 KIWX 131700
TAFFWA
TAF
KFWA 131720Z 1318/1418 32010G20KT P6SM SCT030 BKN045
     FM132000 32010KT P6SM SCT035
     FM140000 00000KT P6SM SKC
      TEMPO 1409/1413 4SM BR
     FM141300 VRB05KT P6SM SKC=

USA.gov is the U.S. government's official web portal to all federal, state and local government web resources and services.